createdAt,value
2017-09-04T00:00:35.562Z,1002.6
2017-09-04T00:01:36.969Z,1002.7
2017-09-04T00:02:58.613Z,1002.7
2017-09-04T00:04:00.009Z,1002.8
2017-09-04T00:05:21.665Z,1002.9
2017-09-04T00:06:23.460Z,1002.8
2017-09-04T00:09:04.078Z,1003.0
2017-09-04T00:10:05.479Z,1003.0
2017-09-04T00:11:27.131Z,1003.0
2017-09-04T00:12:28.528Z,1003.1
2017-09-04T00:13:50.190Z,1003.1
2017-09-04T00:14:51.625Z,1003.2
2017-09-04T00:16:52.764Z,1003.3
2017-09-04T00:17:54.163Z,1003.4
2017-09-04T00:19:15.817Z,1003.5
2017-09-04T00:20:17.216Z,1003.5
2017-09-04T00:21:38.870Z,1003.5
2017-09-04T00:22:40.266Z,1003.6
2017-09-04T00:24:01.924Z,1003.7
2017-09-04T00:25:03.321Z,1003.7
2017-09-04T00:26:24.975Z,1003.8
2017-09-04T00:27:26.328Z,1003.8
2017-09-04T00:30:46.507Z,1004.1
2017-09-04T00:31:47.905Z,1004.1
2017-09-04T00:33:09.559Z,1004.2
2017-09-04T00:34:10.954Z,1004.2
2017-09-04T00:35:32.613Z,1004.2
2017-09-04T00:36:34.009Z,1004.3
2017-09-04T00:37:55.633Z,1004.3
2017-09-04T00:38:57.032Z,1004.2
2017-09-04T00:40:58.146Z,1004.2
2017-09-04T00:41:59.546Z,1004.2
2017-09-04T00:43:21.202Z,1004.1
2017-09-04T00:44:22.597Z,1004.2
2017-09-04T00:45:44.218Z,1004.1
2017-09-04T00:46:45.614Z,1004.1
2017-09-04T00:48:46.738Z,1004.1
2017-09-04T00:49:48.136Z,1004.1
2017-09-04T00:51:09.752Z,1004.1
2017-09-04T00:52:11.149Z,1004.0
2017-09-04T00:54:12.282Z,1004.1
2017-09-04T00:55:13.685Z,1004.1
2017-09-04T00:56:35.319Z,1004.1
2017-09-04T00:57:36.720Z,1004.1
2017-09-04T00:58:58.371Z,1004.1
2017-09-04T00:59:59.769Z,1004.1
2017-09-04T01:01:21.441Z,1004.1
2017-09-04T01:02:22.836Z,1004.1
2017-09-04T01:03:44.480Z,1004.1
2017-09-04T01:04:45.881Z,1004.2
2017-09-04T01:06:07.492Z,1004.2
2017-09-04T01:07:08.889Z,1004.1
2017-09-04T01:09:10.009Z,1004.2
2017-09-04T01:10:11.400Z,1004.2
2017-09-04T01:11:33.058Z,1004.3
2017-09-04T01:12:34.484Z,1004.3
2017-09-04T01:13:56.122Z,1004.3
2017-09-04T01:14:57.513Z,1004.4
2017-09-04T01:16:19.167Z,1004.4
2017-09-04T01:17:20.568Z,1004.5
2017-09-04T01:18:21.971Z,1004.5
2017-09-04T01:19:23.464Z,1004.5
2017-09-04T01:20:24.864Z,1004.6
2017-09-04T01:21:26.261Z,1004.6
2017-09-04T01:22:27.681Z,1004.7
2017-09-04T01:23:29.088Z,1004.7
2017-09-04T01:24:30.563Z,1004.7
2017-09-04T01:25:32.013Z,1004.8
2017-09-04T01:26:33.443Z,1004.8
2017-09-04T01:27:34.846Z,1004.9
2017-09-04T01:28:36.326Z,1004.9
2017-09-04T01:29:37.727Z,1004.9
2017-09-04T01:30:39.208Z,1005.0
2017-09-04T01:31:40.618Z,1005.0
2017-09-04T01:32:42.119Z,1005.0
2017-09-04T01:33:43.520Z,1005.1
2017-09-04T01:34:44.973Z,1005.1
2017-09-04T01:35:46.370Z,1005.1
2017-09-04T01:36:47.785Z,1005.1
2017-09-04T01:37:49.288Z,1005.1
2017-09-04T01:38:50.688Z,1005.2
2017-09-04T01:39:52.087Z,1005.2
2017-09-04T01:40:53.508Z,1005.3
2017-09-04T01:41:54.908Z,1005.3
2017-09-04T01:42:56.306Z,1005.3
2017-09-04T01:43:57.751Z,1005.3
2017-09-04T01:44:59.153Z,1005.4
2017-09-04T01:46:00.550Z,1005.4
2017-09-04T01:47:02.042Z,1005.5
2017-09-04T01:48:03.449Z,1005.4
2017-09-04T01:49:04.845Z,1005.4
2017-09-04T01:50:06.267Z,1005.5
2017-09-04T01:51:07.668Z,1005.5
2017-09-04T01:52:09.065Z,1005.5
2017-09-04T01:53:10.493Z,1005.5
2017-09-04T01:54:11.896Z,1005.6
2017-09-04T01:55:13.364Z,1005.6
2017-09-04T01:56:14.764Z,1005.6
2017-09-04T01:57:16.244Z,1005.6
2017-09-04T01:58:17.647Z,1005.6
2017-09-04T01:59:19.125Z,1005.6
2017-09-04T02:00:20.524Z,1005.7
2017-09-04T02:01:22.005Z,1005.6
2017-09-04T02:02:23.407Z,1005.6
2017-09-04T02:03:24.886Z,1005.6
2017-09-04T02:04:26.285Z,1005.6
2017-09-04T02:05:27.768Z,1005.6
2017-09-04T02:06:29.168Z,1005.6
2017-09-04T02:07:30.573Z,1005.6
2017-09-04T02:08:31.984Z,1005.5
2017-09-04T02:09:33.384Z,1005.5
2017-09-04T02:10:34.782Z,1005.5
2017-09-04T02:11:36.204Z,1005.5
2017-09-04T02:12:37.606Z,1005.5
2017-09-04T02:13:39.087Z,1005.5
2017-09-04T02:14:40.485Z,1005.4
2017-09-04T02:15:41.965Z,1005.5
2017-09-04T02:16:43.365Z,1005.5
2017-09-04T02:17:44.773Z,1005.5
2017-09-04T02:18:46.185Z,1005.5
2017-09-04T02:19:47.586Z,1005.5
2017-09-04T02:20:49.003Z,1005.5
2017-09-04T02:21:50.509Z,1005.4
2017-09-04T02:22:51.909Z,1005.5
2017-09-04T02:23:53.312Z,1005.5
2017-09-04T02:24:54.723Z,1005.5
2017-09-04T02:25:56.124Z,1005.5
2017-09-04T02:26:57.523Z,1005.4
2017-09-04T02:27:58.944Z,1005.5
2017-09-04T02:29:00.340Z,1005.4
2017-09-04T02:30:01.821Z,1005.5
2017-09-04T02:31:03.229Z,1005.5
2017-09-04T02:32:04.625Z,1005.5
2017-09-04T02:33:06.042Z,1005.5
2017-09-04T02:34:07.442Z,1005.5
2017-09-04T02:35:08.840Z,1005.5
2017-09-04T02:36:10.261Z,1005.5
2017-09-04T02:37:11.655Z,1005.5
2017-09-04T02:38:13.142Z,1005.5
2017-09-04T02:39:14.542Z,1005.6
2017-09-04T02:40:16.021Z,1005.6
2017-09-04T02:41:17.424Z,1005.6
2017-09-04T02:42:18.842Z,1005.6
2017-09-04T02:43:20.240Z,1005.6
2017-09-04T02:44:21.639Z,1005.6
2017-09-04T02:45:23.037Z,1005.5
2017-09-04T02:46:24.459Z,1005.5
2017-09-04T02:47:25.857Z,1005.6
2017-09-04T02:48:27.340Z,1005.6
2017-09-04T02:49:28.740Z,1005.6
2017-09-04T02:50:30.221Z,1005.5
2017-09-04T02:51:31.620Z,1005.5
2017-09-04T02:52:33.020Z,1005.5
2017-09-04T02:53:34.444Z,1005.5
2017-09-04T02:54:35.855Z,1005.5
2017-09-04T02:55:37.252Z,1005.5
2017-09-04T02:56:38.773Z,1005.5
2017-09-04T02:57:40.171Z,1005.5
2017-09-04T02:58:41.640Z,1005.5
2017-09-04T02:59:43.044Z,1005.4
2017-09-04T03:00:44.525Z,1005.4
2017-09-04T03:01:45.927Z,1005.4
2017-09-04T03:02:47.335Z,1005.4
2017-09-04T03:03:48.843Z,1005.4
2017-09-04T03:04:50.241Z,1005.4
2017-09-04T03:05:51.691Z,1005.4
2017-09-04T03:06:53.163Z,1005.5
2017-09-04T03:07:54.561Z,1005.6
2017-09-04T03:08:56.057Z,1005.6
2017-09-04T03:09:57.459Z,1005.6
2017-09-04T03:10:58.924Z,1005.7
2017-09-04T03:12:00.325Z,1005.7
2017-09-04T03:13:01.728Z,1005.7
2017-09-04T03:14:03.143Z,1005.7
2017-09-04T03:15:04.586Z,1005.7
2017-09-04T03:16:05.985Z,1005.7
2017-09-04T03:17:07.465Z,1005.6
2017-09-04T03:18:08.864Z,1005.6
2017-09-04T03:19:10.345Z,1005.6
2017-09-04T03:20:11.741Z,1005.6
2017-09-04T03:21:13.225Z,1005.5
2017-09-04T03:22:14.624Z,1005.5
2017-09-04T03:23:16.023Z,1005.5
2017-09-04T03:24:17.444Z,1005.5
2017-09-04T03:25:18.844Z,1005.5
2017-09-04T03:26:20.247Z,1005.5
2017-09-04T03:27:21.663Z,1005.5
2017-09-04T03:28:23.063Z,1005.4
2017-09-04T03:29:24.543Z,1005.5
2017-09-04T03:30:25.977Z,1005.5
2017-09-04T03:31:27.425Z,1005.5
2017-09-04T03:32:28.826Z,1005.4
2017-09-04T03:33:30.223Z,1005.4
2017-09-04T03:34:31.643Z,1005.4
2017-09-04T03:35:33.042Z,1005.3
2017-09-04T03:36:34.464Z,1005.3
2017-09-04T03:37:35.964Z,1005.2
2017-09-04T03:38:37.363Z,1005.2
2017-09-04T03:39:38.765Z,1005.2
2017-09-04T03:40:40.182Z,1005.2
2017-09-04T03:41:41.584Z,1005.2
2017-09-04T03:42:43.004Z,1005.1
2017-09-04T03:43:44.401Z,1005.1
2017-09-04T03:44:45.800Z,1005.1
2017-09-04T03:45:47.200Z,1005.0
2017-09-04T03:46:48.633Z,1005.1
2017-09-04T03:47:50.032Z,1005.1
2017-09-04T03:48:51.429Z,1005.0
2017-09-04T03:49:52.944Z,1005.1
2017-09-04T03:50:54.340Z,1005.1
2017-09-04T03:51:55.742Z,1005.0
2017-09-04T03:52:57.173Z,1005.1
2017-09-04T03:53:58.575Z,1005.1
2017-09-04T03:54:59.969Z,1005.1
2017-09-04T03:56:01.479Z,1005.1
2017-09-04T03:57:02.906Z,1005.1
2017-09-04T03:58:04.306Z,1005.1
2017-09-04T03:59:05.800Z,1005.1
2017-09-04T04:00:07.204Z,1005.1
2017-09-04T04:01:08.606Z,1005.1
2017-09-04T04:02:10.021Z,1005.1
2017-09-04T04:03:11.416Z,1005.1
2017-09-04T04:04:12.816Z,1005.1
2017-09-04T04:05:14.238Z,1005.2
2017-09-04T04:06:15.644Z,1005.2
2017-09-04T04:07:17.045Z,1005.1
2017-09-04T04:08:18.558Z,1005.2
2017-09-04T04:09:19.955Z,1005.2
2017-09-04T04:10:21.356Z,1005.1
2017-09-04T04:11:22.778Z,1005.1
2017-09-04T04:12:24.176Z,1005.1
2017-09-04T04:13:25.577Z,1005.1
2017-09-04T04:14:26.998Z,1005.1
2017-09-04T04:15:28.399Z,1005.0
2017-09-04T04:16:29.877Z,1005.0
2017-09-04T04:17:31.298Z,1004.9
2017-09-04T04:18:32.760Z,1004.9
2017-09-04T04:19:34.158Z,1004.9
2017-09-04T04:20:35.635Z,1004.9
2017-09-04T04:21:37.040Z,1004.9
2017-09-04T04:22:38.447Z,1005.0
2017-09-04T04:23:39.859Z,1004.9
2017-09-04T04:24:41.257Z,1004.9
2017-09-04T04:25:42.660Z,1004.9
2017-09-04T04:26:44.076Z,1004.9
2017-09-04T04:27:45.476Z,1004.9
2017-09-04T04:28:46.877Z,1004.9
2017-09-04T04:29:48.301Z,1004.9
2017-09-04T04:30:49.698Z,1004.9
2017-09-04T04:31:51.098Z,1004.9
2017-09-04T04:32:52.517Z,1004.8
2017-09-04T04:33:53.917Z,1004.9
2017-09-04T04:34:55.319Z,1004.9
2017-09-04T04:35:56.732Z,1004.9
2017-09-04T04:36:58.128Z,1004.9
2017-09-04T04:37:59.530Z,1004.8
2017-09-04T04:39:00.967Z,1004.8
2017-09-04T04:40:02.362Z,1004.8
2017-09-04T04:41:03.771Z,1004.9
2017-09-04T04:42:05.319Z,1004.8
2017-09-04T04:43:06.720Z,1004.8
2017-09-04T04:44:08.119Z,1004.8
2017-09-04T04:45:09.612Z,1004.8
2017-09-04T04:46:11.039Z,1004.8
2017-09-04T04:47:12.410Z,1004.9
2017-09-04T04:48:13.914Z,1004.9
2017-09-04T04:49:15.314Z,1004.8
2017-09-04T04:50:16.715Z,1004.9
2017-09-04T04:51:18.137Z,1004.9
2017-09-04T04:52:19.532Z,1004.8
2017-09-04T04:53:20.929Z,1004.9
2017-09-04T04:54:22.353Z,1004.9
2017-09-04T04:55:23.749Z,1004.8
2017-09-04T04:56:25.233Z,1004.9
2017-09-04T04:57:26.636Z,1005.0
2017-09-04T04:58:28.113Z,1004.9
2017-09-04T04:59:29.510Z,1004.9
2017-09-04T05:00:30.915Z,1005.0
2017-09-04T05:01:32.321Z,1005.0
2017-09-04T05:02:33.776Z,1005.0
2017-09-04T05:03:35.175Z,1005.1
2017-09-04T05:04:36.671Z,1005.0
2017-09-04T05:05:38.071Z,1005.1
2017-09-04T05:06:39.534Z,1005.1
2017-09-04T05:07:40.933Z,1005.1
2017-09-04T05:08:42.434Z,1005.2
2017-09-04T05:09:43.834Z,1005.1
2017-09-04T05:10:45.297Z,1005.2
2017-09-04T05:11:46.697Z,1005.2
2017-09-04T05:12:48.183Z,1005.3
2017-09-04T05:13:49.583Z,1005.4
2017-09-04T05:14:50.985Z,1005.4
2017-09-04T05:15:52.513Z,1005.4
2017-09-04T05:16:53.909Z,1005.5
2017-09-04T05:17:55.321Z,1005.6
2017-09-04T05:18:57.741Z,1005.7
2017-09-04T05:19:59.144Z,1005.7
2017-09-04T05:21:00.635Z,1005.7
2017-09-04T05:22:02.046Z,1005.9
2017-09-04T05:23:03.517Z,1006.0
2017-09-04T05:24:04.916Z,1006.0
2017-09-04T05:25:06.386Z,1006.1
2017-09-04T05:26:07.787Z,1006.3
2017-09-04T05:27:09.269Z,1006.3
2017-09-04T05:28:10.668Z,1006.4
2017-09-04T05:29:12.147Z,1006.5
2017-09-04T05:30:13.550Z,1006.5
2017-09-04T05:31:15.022Z,1006.6
2017-09-04T05:32:16.429Z,1006.7
2017-09-04T05:33:17.905Z,1006.8
2017-09-04T05:34:19.309Z,1006.9
2017-09-04T05:35:20.787Z,1007.0
2017-09-04T05:36:22.188Z,1007.1
2017-09-04T05:37:23.667Z,1007.1
2017-09-04T05:38:25.077Z,1007.2
2017-09-04T05:39:26.549Z,1007.3
2017-09-04T05:40:27.952Z,1007.4
2017-09-04T05:41:29.429Z,1007.5
2017-09-04T05:42:30.831Z,1007.5
2017-09-04T05:43:32.313Z,1007.7
2017-09-04T05:44:33.718Z,1007.8
2017-09-04T05:45:35.190Z,1007.8
2017-09-04T05:46:36.598Z,1007.9
2017-09-04T05:47:38.072Z,1008.0
2017-09-04T05:48:39.496Z,1008.1
2017-09-04T05:49:40.882Z,1008.2
2017-09-04T05:50:42.394Z,1008.2
2017-09-04T05:51:43.800Z,1008.3
2017-09-04T05:52:45.201Z,1008.4
2017-09-04T05:53:46.714Z,1008.4
2017-09-04T05:54:48.128Z,1008.5
2017-09-04T05:55:49.594Z,1008.7
2017-09-04T05:56:50.999Z,1008.8
2017-09-04T05:57:52.475Z,1008.9
2017-09-04T05:58:53.890Z,1009.0
2017-09-04T05:59:55.284Z,1009.2
2017-09-04T06:00:56.800Z,1009.2
2017-09-04T06:01:58.210Z,1009.3
2017-09-04T06:02:59.608Z,1009.4
2017-09-04T06:04:01.122Z,1009.4
2017-09-04T06:05:02.521Z,1009.5
2017-09-04T06:06:03.997Z,1009.7
2017-09-04T06:07:05.402Z,1009.8
2017-09-04T06:08:06.912Z,1010.0
2017-09-04T06:09:08.316Z,1010.1
2017-09-04T06:10:09.719Z,1010.2
2017-09-04T06:11:11.200Z,1010.2
2017-09-04T06:12:12.598Z,1010.4
2017-09-04T06:13:14.001Z,1010.5
2017-09-04T06:14:15.419Z,1010.5
2017-09-04T06:15:16.842Z,1010.6
2017-09-04T06:16:18.298Z,1010.7
2017-09-04T06:17:19.707Z,1010.8
2017-09-04T06:18:21.179Z,1010.9
2017-09-04T06:19:30.441Z,1010.9
2017-09-04T06:20:31.847Z,1011.1
2017-09-04T06:21:33.265Z,1011.2
2017-09-04T06:22:38.979Z,1011.3
2017-09-04T06:23:40.514Z,1011.5
2017-09-04T06:24:42.009Z,1011.6
2017-09-04T06:25:43.425Z,1011.7
2017-09-04T06:26:44.888Z,1011.9
2017-09-04T06:27:46.297Z,1012.0
2017-09-04T06:28:47.770Z,1012.1
2017-09-04T06:29:49.173Z,1012.4
2017-09-04T06:30:50.575Z,1012.6
2017-09-04T06:31:52.091Z,1012.7
2017-09-04T06:32:53.492Z,1012.8
2017-09-04T06:33:54.892Z,1013.0
2017-09-04T06:34:56.310Z,1013.2
2017-09-04T06:35:57.722Z,1013.3
2017-09-04T06:36:59.125Z,1013.6
2017-09-04T06:38:01.548Z,1013.7
2017-09-04T06:39:02.955Z,1013.9
2017-09-04T06:40:04.359Z,1014.1
2017-09-04T06:41:05.892Z,1014.4
2017-09-04T06:42:07.292Z,1014.7
2017-09-04T06:43:08.693Z,1014.9
2017-09-04T06:44:10.193Z,1015.0
2017-09-04T06:45:11.597Z,1015.3
2017-09-04T06:46:13.001Z,1015.5
2017-09-04T06:47:14.514Z,1015.7
2017-09-04T06:48:15.913Z,1015.9
2017-09-04T06:49:17.318Z,1016.2
2017-09-04T06:50:18.833Z,1016.4
2017-09-04T06:51:20.242Z,1016.5
2017-09-04T06:52:21.721Z,1016.7
2017-09-04T06:53:23.120Z,1016.9
2017-09-04T06:54:24.595Z,1017.0
2017-09-04T06:55:25.998Z,1017.2
2017-09-04T06:56:27.400Z,1017.3
2017-09-04T06:57:28.814Z,1017.5
2017-09-04T06:58:30.215Z,1017.7
2017-09-04T06:59:31.617Z,1017.8
2017-09-04T07:00:33.135Z,1017.9
2017-09-04T07:01:34.541Z,1018.1
2017-09-04T07:02:36.029Z,1018.2
2017-09-04T07:03:37.424Z,1018.4
2017-09-04T07:04:38.902Z,1018.6
2017-09-04T07:05:40.301Z,1018.7
2017-09-04T07:06:41.706Z,1018.7
2017-09-04T07:07:43.228Z,1018.9
2017-09-04T07:08:44.636Z,1019.0
2017-09-04T07:09:46.038Z,1019.3
2017-09-04T07:10:47.537Z,1019.4
2017-09-04T07:11:48.947Z,1019.6
2017-09-04T07:12:50.424Z,1019.8
2017-09-04T07:13:51.827Z,1020.0
2017-09-04T07:14:53.300Z,1020.2
2017-09-04T07:15:54.706Z,1020.4
2017-09-04T07:16:56.185Z,1020.5
2017-09-04T07:17:57.592Z,1020.6
2017-09-04T07:18:59.066Z,1020.7
2017-09-04T07:20:00.469Z,1020.8
2017-09-04T07:21:01.872Z,1021.0
2017-09-04T07:22:03.396Z,1021.1
2017-09-04T07:23:04.803Z,1021.3
2017-09-04T07:24:06.205Z,1021.5
2017-09-04T07:25:07.706Z,1021.7
2017-09-04T07:26:09.118Z,1021.9
2017-09-04T07:27:10.583Z,1022.0
2017-09-04T07:28:11.992Z,1022.2
2017-09-04T07:29:13.467Z,1022.4
2017-09-04T07:30:14.872Z,1022.5
2017-09-04T07:31:16.277Z,1022.8
2017-09-04T07:32:17.787Z,1023.0
2017-09-04T07:33:19.192Z,1023.1
2017-09-04T07:34:20.603Z,1023.3
2017-09-04T07:35:22.108Z,1023.5
2017-09-04T07:36:23.518Z,1023.6
2017-09-04T07:37:24.989Z,1023.8
2017-09-04T07:38:26.400Z,1024.0
2017-09-04T07:39:27.869Z,1024.2
2017-09-04T07:40:29.273Z,1024.3
2017-09-04T07:41:30.674Z,1024.4
2017-09-04T07:42:32.191Z,1024.6
2017-09-04T07:43:33.597Z,1024.8
2017-09-04T07:44:35.003Z,1024.9
2017-09-04T07:45:36.511Z,1025.1
2017-09-04T07:46:37.925Z,1025.2
2017-09-04T07:47:39.327Z,1025.4
2017-09-04T07:48:40.832Z,1025.6
2017-09-04T07:49:42.256Z,1025.8
2017-09-04T07:50:43.665Z,1026.0
2017-09-04T07:51:45.217Z,1026.2
2017-09-04T07:52:46.618Z,1026.3
2017-09-04T07:53:48.026Z,1026.5
2017-09-04T07:54:49.429Z,1026.6
2017-09-04T07:55:50.834Z,1026.9
2017-09-04T07:56:52.253Z,1027.2
2017-09-04T07:57:53.667Z,1027.5
2017-09-04T07:58:55.127Z,1027.7
2017-09-04T07:59:56.537Z,1027.8
2017-09-04T08:00:57.959Z,1027.8
2017-09-04T08:01:59.455Z,1028.1
2017-09-04T08:03:00.858Z,1028.3
2017-09-04T08:04:02.265Z,1028.6
2017-09-04T08:05:03.784Z,1028.8
2017-09-04T08:06:05.183Z,1029.1
2017-09-04T08:07:06.596Z,1029.4
2017-09-04T08:08:08.098Z,1029.6
2017-09-04T08:09:09.503Z,1029.9
2017-09-04T08:10:10.978Z,1030.2
2017-09-04T08:11:12.385Z,1030.4
2017-09-04T08:12:13.788Z,1030.6
2017-09-04T08:13:15.302Z,1030.8
2017-09-04T08:14:16.705Z,1031.1
2017-09-04T08:15:18.118Z,1031.4
2017-09-04T08:16:19.617Z,1031.8
2017-09-04T08:17:21.023Z,1032.1
2017-09-04T08:18:22.503Z,1032.4
2017-09-04T08:19:23.909Z,1032.6
2017-09-04T08:20:25.382Z,1032.7
2017-09-04T08:21:26.784Z,1033.1
2017-09-04T08:22:28.188Z,1033.5
2017-09-04T08:23:29.707Z,1033.8
2017-09-04T08:24:31.113Z,1034.1
2017-09-04T08:25:32.520Z,1034.3
2017-09-04T08:26:33.929Z,1034.6
2017-09-04T08:27:35.334Z,1034.8
2017-09-04T08:28:36.742Z,1035.1
2017-09-04T08:29:38.146Z,1035.4
2017-09-04T08:30:39.562Z,1035.7
2017-09-04T08:31:40.969Z,1035.9
2017-09-04T08:32:42.373Z,1036.1
2017-09-04T08:33:43.783Z,1036.4
2017-09-04T08:34:45.193Z,1036.6
2017-09-04T08:35:46.598Z,1036.8
2017-09-04T08:36:48.015Z,1037.1
2017-09-04T08:37:49.419Z,1037.3
2017-09-04T08:38:50.832Z,1037.4
2017-09-04T08:39:52.235Z,1037.7
2017-09-04T08:40:53.641Z,1037.8
2017-09-04T08:41:55.049Z,1038.1
2017-09-04T08:42:56.450Z,1038.2
2017-09-04T08:43:57.856Z,1038.4
2017-09-04T08:44:59.265Z,1038.7
2017-09-04T08:46:00.668Z,1038.9
2017-09-04T08:47:02.073Z,1039.2
2017-09-04T08:48:03.489Z,1039.4
2017-09-04T08:49:04.888Z,1039.7
2017-09-04T08:50:06.286Z,1040.0
2017-09-04T08:51:07.697Z,1040.3
2017-09-04T08:52:09.493Z,1040.5
2017-09-04T08:53:10.901Z,1040.9
2017-09-04T08:54:12.411Z,1041.1
2017-09-04T08:55:13.820Z,1041.4
2017-09-04T08:56:15.242Z,1041.8
2017-09-04T08:57:16.731Z,1042.1
2017-09-04T08:58:18.188Z,1042.5
2017-09-04T08:59:19.604Z,1042.8
2017-09-04T09:00:21.020Z,1043.1
2017-09-04T09:01:22.438Z,1043.4
2017-09-04T09:02:23.934Z,1043.7
2017-09-04T09:03:25.338Z,1044.1
2017-09-04T09:04:26.742Z,1044.5
2017-09-04T09:05:28.256Z,1044.9
2017-09-04T09:06:29.667Z,1045.2
2017-09-04T09:07:31.077Z,1045.5
2017-09-04T09:08:32.577Z,1045.7
2017-09-04T09:09:33.987Z,1045.9
2017-09-04T09:10:35.390Z,1046.2
2017-09-04T09:11:36.900Z,1046.9
2017-09-04T09:12:38.305Z,1047.6
2017-09-04T09:13:39.713Z,1048.3
2017-09-04T09:14:41.263Z,1049.0
2017-09-04T09:15:42.628Z,1049.6
2017-09-04T09:16:44.061Z,1050.4
2017-09-04T09:17:45.586Z,1051.2
2017-09-04T09:18:46.991Z,1051.9
2017-09-04T09:19:48.400Z,1052.6
2017-09-04T09:20:49.862Z,1053.3
2017-09-04T09:21:51.274Z,1054.0
2017-09-04T09:22:52.682Z,1054.7
2017-09-04T09:23:54.186Z,1055.3
2017-09-04T09:24:55.613Z,1056.3
2017-09-04T09:25:57.064Z,1057.2
2017-09-04T09:26:58.471Z,1057.4
2017-09-04T09:27:59.938Z,1057.7
2017-09-04T09:29:01.389Z,1057.9
2017-09-04T09:30:02.796Z,1058.1
2017-09-04T09:31:04.206Z,1058.3
2017-09-04T09:32:05.710Z,1058.6
2017-09-04T09:33:07.137Z,1058.9
2017-09-04T09:34:08.556Z,1059.2
2017-09-04T09:35:10.032Z,1059.4
2017-09-04T09:36:11.438Z,1059.6
2017-09-04T09:37:12.847Z,1059.8
2017-09-04T09:38:14.353Z,1059.9
2017-09-04T09:39:15.761Z,1060.1
2017-09-04T09:40:17.234Z,1060.1
2017-09-04T09:41:18.642Z,1060.0
2017-09-04T09:42:20.048Z,1060.0
2017-09-04T09:43:21.554Z,1059.9
2017-09-04T09:44:22.968Z,1059.9
2017-09-04T09:45:24.370Z,1059.9
2017-09-04T09:46:25.877Z,1059.8
2017-09-04T09:47:27.285Z,1059.6
2017-09-04T09:48:28.706Z,1059.4
2017-09-04T09:49:30.213Z,1059.1
2017-09-04T09:50:31.619Z,1058.9
2017-09-04T09:51:33.078Z,1058.8
2017-09-04T09:52:34.487Z,1058.3
2017-09-04T09:53:35.957Z,1058.2
2017-09-04T09:54:37.366Z,1057.9
2017-09-04T09:55:38.844Z,1057.7
2017-09-04T09:56:40.249Z,1057.4
2017-09-04T09:57:41.722Z,1057.0
2017-09-04T09:58:43.132Z,1056.8
2017-09-04T09:59:44.602Z,1056.5
2017-09-04T10:00:46.008Z,1056.2
2017-09-04T10:01:47.485Z,1056.0
2017-09-04T10:02:48.894Z,1055.9
2017-09-04T10:03:50.302Z,1055.7
2017-09-04T10:04:51.806Z,1055.7
2017-09-04T10:05:53.218Z,1055.6
2017-09-04T10:06:54.625Z,1055.5
2017-09-04T10:07:56.125Z,1055.4
2017-09-04T10:08:57.534Z,1055.2
2017-09-04T10:09:58.955Z,1055.1
2017-09-04T10:11:00.452Z,1055.0
2017-09-04T10:12:01.857Z,1055.0
2017-09-04T10:13:03.268Z,1055.0
2017-09-04T10:14:04.799Z,1055.1
2017-09-04T10:15:06.207Z,1055.1
2017-09-04T10:16:07.620Z,1055.3
2017-09-04T10:17:09.096Z,1055.4
2017-09-04T10:18:10.504Z,1055.5
2017-09-04T10:19:11.913Z,1055.7
2017-09-04T10:20:13.417Z,1055.9
2017-09-04T10:21:14.829Z,1055.9
2017-09-04T10:22:16.236Z,1056.1
2017-09-04T10:23:17.655Z,1056.4
2017-09-04T10:24:19.065Z,1056.7
2017-09-04T10:25:20.472Z,1057.1
2017-09-04T10:26:22.263Z,1057.4
2017-09-04T10:27:23.675Z,1057.8
2017-09-04T10:28:25.087Z,1058.3
2017-09-04T10:29:26.583Z,1058.7
2017-09-04T10:30:27.998Z,1059.2
2017-09-04T10:31:29.400Z,1059.6
2017-09-04T10:32:30.913Z,1060.2
2017-09-04T10:33:32.322Z,1060.9
2017-09-04T10:34:33.788Z,1061.4
2017-09-04T10:35:35.201Z,1061.7
2017-09-04T10:36:36.669Z,1062.6
2017-09-04T10:37:38.078Z,1063.8
2017-09-04T10:38:39.550Z,1064.0
2017-09-04T10:39:40.967Z,1064.3
2017-09-04T10:40:42.431Z,1064.6
2017-09-04T10:41:43.839Z,1065.1
2017-09-04T10:42:45.311Z,1065.7
2017-09-04T10:43:46.720Z,1065.9
2017-09-04T10:44:48.200Z,1066.3
2017-09-04T10:45:49.610Z,1067.1
2017-09-04T10:46:51.422Z,1067.8
2017-09-04T10:47:52.836Z,1068.4
2017-09-04T10:48:54.238Z,1068.8
2017-09-04T10:49:55.805Z,1069.5
2017-09-04T10:50:57.213Z,1070.1
2017-09-04T10:51:58.623Z,1070.9
2017-09-04T10:53:00.129Z,1071.5
2017-09-04T10:54:01.538Z,1072.1
2017-09-04T10:55:02.950Z,1072.7
2017-09-04T10:56:04.451Z,1073.2
2017-09-04T10:57:05.862Z,1073.8
2017-09-04T10:58:07.270Z,1074.3
2017-09-04T10:59:08.771Z,1074.8
2017-09-04T11:00:10.178Z,1075.3
2017-09-04T11:01:11.651Z,1075.7
2017-09-04T11:02:13.060Z,1075.9
2017-09-04T11:03:14.534Z,1076.4
2017-09-04T11:04:15.946Z,1076.8
2017-09-04T11:05:17.416Z,1076.8
2017-09-04T11:06:18.828Z,1076.3
2017-09-04T11:07:20.293Z,1075.1
2017-09-04T11:08:21.705Z,1073.4
2017-09-04T11:09:23.148Z,1071.1
2017-09-04T11:10:24.616Z,1069.0
2017-09-04T11:11:26.445Z,1067.4
2017-09-04T11:12:27.853Z,1065.8
2017-09-04T11:13:29.347Z,1063.8
2017-09-04T11:14:30.757Z,1061.9
2017-09-04T11:15:32.168Z,1059.9
2017-09-04T11:16:33.671Z,1058.0
2017-09-04T11:17:35.083Z,1056.4
2017-09-04T11:18:36.494Z,1055.3
2017-09-04T11:19:37.990Z,1054.3
2017-09-04T11:20:39.397Z,1053.3
2017-09-04T11:21:40.807Z,1052.7
2017-09-04T11:22:42.316Z,1052.0
2017-09-04T11:23:43.727Z,1051.1
2017-09-04T11:24:45.136Z,1050.0
2017-09-04T11:25:46.635Z,1049.1
2017-09-04T11:26:48.101Z,1048.4
2017-09-04T11:27:49.722Z,1047.8
2017-09-04T11:28:51.260Z,1047.5
2017-09-04T11:29:52.656Z,1047.9
2017-09-04T11:30:54.246Z,1048.6
2017-09-04T11:31:55.654Z,1049.6
2017-09-04T11:32:57.069Z,1050.7
2017-09-04T11:33:58.568Z,1052.2
2017-09-04T11:34:59.982Z,1053.8
2017-09-04T11:36:01.397Z,1055.1
2017-09-04T11:37:02.891Z,1056.0
2017-09-04T11:38:04.306Z,1056.6
2017-09-04T11:39:05.723Z,1057.1
2017-09-04T11:40:07.213Z,1057.5
2017-09-04T11:41:08.626Z,1057.8
2017-09-04T11:42:10.038Z,1058.0
2017-09-04T11:43:11.534Z,1058.0
2017-09-04T11:44:12.952Z,1057.6
2017-09-04T11:45:14.414Z,1057.3
2017-09-04T11:46:15.829Z,1057.0
2017-09-04T11:47:17.297Z,1056.1
2017-09-04T11:48:18.708Z,1055.7
2017-09-04T11:49:20.115Z,1053.8
2017-09-04T11:50:21.618Z,1052.9
2017-09-04T11:51:23.028Z,1052.9
2017-09-04T11:52:24.439Z,1053.2
2017-09-04T11:53:25.942Z,1053.5
2017-09-04T11:54:27.354Z,1053.5
2017-09-04T11:55:28.765Z,1053.2
2017-09-04T11:56:30.262Z,1052.3
2017-09-04T11:57:31.673Z,1052.0
2017-09-04T11:58:33.084Z,1051.7
2017-09-04T11:59:34.583Z,1051.5
2017-09-04T12:00:35.996Z,1051.3
2017-09-04T12:01:37.464Z,1051.5
2017-09-04T12:02:38.875Z,1051.5
2017-09-04T12:03:40.347Z,1051.6
2017-09-04T12:04:41.758Z,1051.6
2017-09-04T12:05:43.169Z,1051.2
2017-09-04T12:06:44.667Z,1050.4
2017-09-04T12:07:46.101Z,1049.4
2017-09-04T12:08:47.500Z,1048.4
2017-09-04T12:09:48.984Z,1047.3
2017-09-04T12:10:50.399Z,1045.7
2017-09-04T12:11:51.867Z,1042.4
2017-09-04T12:12:53.278Z,1039.7
2017-09-04T12:13:54.748Z,1037.6
2017-09-04T12:14:56.160Z,1037.8
2017-09-04T12:15:57.571Z,1037.8
2017-09-04T12:16:59.070Z,1036.8
2017-09-04T12:18:00.483Z,1035.2
2017-09-04T12:19:01.888Z,1033.6
2017-09-04T12:20:03.393Z,1032.3
2017-09-04T12:21:05.570Z,1031.2
2017-09-04T12:22:07.092Z,1030.4
2017-09-04T12:23:08.502Z,1030.1
2017-09-04T12:24:09.912Z,1030.6
2017-09-04T12:25:11.317Z,1031.7
2017-09-04T12:26:12.728Z,1031.6
2017-09-04T12:27:14.301Z,1031.4
2017-09-04T12:28:15.708Z,1028.9
2017-09-04T12:29:17.121Z,1026.9
2017-09-04T12:30:18.528Z,1025.3
2017-09-04T12:31:19.943Z,1025.3
2017-09-04T12:32:21.364Z,1024.7
2017-09-04T12:33:22.938Z,1023.8
2017-09-04T12:34:24.346Z,1023.2
2017-09-04T12:35:25.818Z,1022.7
2017-09-04T12:36:27.232Z,1022.1
2017-09-04T12:37:28.703Z,1022.1
2017-09-04T12:38:30.115Z,1022.3
2017-09-04T12:39:31.580Z,1020.7
2017-09-04T12:40:32.987Z,1019.4
2017-09-04T12:41:34.462Z,1018.1
2017-09-04T12:42:35.869Z,1017.9
2017-09-04T12:43:37.344Z,1017.5
2017-09-04T12:44:38.751Z,1017.1
2017-09-04T12:45:40.161Z,1016.4
2017-09-04T12:46:41.664Z,1016.0
2017-09-04T12:47:43.072Z,1015.6
2017-09-04T12:48:44.478Z,1015.2
2017-09-04T12:49:45.986Z,1014.5
2017-09-04T12:50:47.394Z,1013.7
2017-09-04T12:51:48.803Z,1013.1
2017-09-04T12:52:50.346Z,1012.5
2017-09-04T12:53:51.719Z,1011.9
2017-09-04T12:54:53.125Z,1011.5
2017-09-04T12:55:54.629Z,1011.1
2017-09-04T12:56:56.034Z,1010.5
2017-09-04T12:57:57.512Z,1010.0
2017-09-04T12:58:58.918Z,1009.5
2017-09-04T13:00:00.393Z,1009.0
2017-09-04T13:01:01.798Z,1008.5
2017-09-04T13:02:03.275Z,1008.0
2017-09-04T13:03:04.681Z,1007.5